sensor_id;sensor_type;location;lat;lon;timestamp;P1;durP1;ratioP1;P2;durP2;ratioP2
5077;SDS011;2557;51.390;7.494;2022-09-02T00:02:14;2.70;;;2.50;;
5077;SDS011;2557;51.390;7.494;2022-09-02T00:04:41;2.27;;;2.10;;
5077;SDS011;2557;51.390;7.494;2022-09-02T00:07:08;2.27;;;2.00;;
5077;SDS011;2557;51.390;7.494;2022-09-02T00:09:34;4.63;;;2.23;;
5077;SDS011;2557;51.390;7.494;2022-09-02T00:12:01;3.93;;;1.97;;
5077;SDS011;2557;51.390;7.494;2022-09-02T00:14:29;2.97;;;2.67;;
5077;SDS011;2557;51.390;7.494;2022-09-02T00:16:55;5.47;;;1.80;;
5077;SDS011;2557;51.390;7.494;2022-09-02T00:19:25;3.50;;;2.20;;
5077;SDS011;2557;51.390;7.494;2022-09-02T00:21:51;2.77;;;2.10;;
5077;SDS011;2557;51.390;7.494;2022-09-02T00:24:18;5.70;;;2.37;;
5077;SDS011;2557;51.390;7.494;2022-09-02T00:26:44;2.30;;;1.90;;
5077;SDS011;2557;51.390;7.494;2022-09-02T00:29:11;3.17;;;1.77;;
5077;SDS011;2557;51.390;7.494;2022-09-02T00:31:38;2.73;;;2.53;;
5077;SDS011;2557;51.390;7.494;2022-09-02T00:34:05;4.20;;;1.90;;
5077;SDS011;2557;51.390;7.494;2022-09-02T00:36:31;2.27;;;2.17;;
5077;SDS011;2557;51.390;7.494;2022-09-02T00:38:58;5.50;;;2.20;;
5077;SDS011;2557;51.390;7.494;2022-09-02T00:41:24;2.63;;;2.53;;
5077;SDS011;2557;51.390;7.494;2022-09-02T00:43:59;2.40;;;2.20;;
5077;SDS011;2557;51.390;7.494;2022-09-02T00:46:26;3.27;;;2.17;;
5077;SDS011;2557;51.390;7.494;2022-09-02T00:48:54;2.90;;;2.10;;
5077;SDS011;2557;51.390;7.494;2022-09-02T00:51:21;2.33;;;2.13;;
5077;SDS011;2557;51.390;7.494;2022-09-02T00:53:48;2.20;;;2.00;;
5077;SDS011;2557;51.390;7.494;2022-09-02T00:56:17;2.13;;;1.93;;
5077;SDS011;2557;51.390;7.494;2022-09-02T00:58:44;2.73;;;2.50;;
5077;SDS011;2557;51.390;7.494;2022-09-02T01:01:10;2.07;;;1.80;;
5077;SDS011;2557;51.390;7.494;2022-09-02T01:03:37;3.10;;;2.00;;
5077;SDS011;2557;51.390;7.494;2022-09-02T01:06:04;2.83;;;1.90;;
5077;SDS011;2557;51.390;7.494;2022-09-02T01:08:32;2.40;;;2.20;;
5077;SDS011;2557;51.390;7.494;2022-09-02T01:10:59;4.33;;;2.40;;
5077;SDS011;2557;51.390;7.494;2022-09-02T01:13:28;3.37;;;2.10;;
5077;SDS011;2557;51.390;7.494;2022-09-02T01:15:56;5.57;;;2.30;;
5077;SDS011;2557;51.390;7.494;2022-09-02T01:18:24;4.50;;;2.30;;
5077;SDS011;2557;51.390;7.494;2022-09-02T01:20:53;3.37;;;2.27;;
5077;SDS011;2557;51.390;7.494;2022-09-02T01:23:19;2.33;;;2.13;;
5077;SDS011;2557;51.390;7.494;2022-09-02T01:25:45;3.97;;;2.00;;
5077;SDS011;2557;51.390;7.494;2022-09-02T01:28:12;2.23;;;2.13;;
5077;SDS011;2557;51.390;7.494;2022-09-02T01:30:40;5.33;;;2.27;;
5077;SDS011;2557;51.390;7.494;2022-09-02T01:33:07;4.30;;;3.03;;
5077;SDS011;2557;51.390;7.494;2022-09-02T01:35:33;2.67;;;1.80;;
5077;SDS011;2557;51.390;7.494;2022-09-02T01:37:59;4.17;;;2.90;;
5077;SDS011;2557;51.390;7.494;2022-09-02T01:40:26;2.47;;;2.27;;
5077;SDS011;2557;51.390;7.494;2022-09-02T01:42:54;2.90;;;2.20;;
5077;SDS011;2557;51.390;7.494;2022-09-02T01:45:20;4.00;;;2.33;;
5077;SDS011;2557;51.390;7.494;2022-09-02T01:47:46;2.63;;;2.43;;
5077;SDS011;2557;51.390;7.494;2022-09-02T01:50:12;2.17;;;1.93;;
5077;SDS011;2557;51.390;7.494;2022-09-02T01:52:38;7.10;;;3.60;;
5077;SDS011;2557;51.390;7.494;2022-09-02T01:55:05;3.13;;;2.50;;
5077;SDS011;2557;51.390;7.494;2022-09-02T01:57:31;2.90;;;2.70;;
5077;SDS011;2557;51.390;7.494;2022-09-02T01:59:57;3.53;;;3.20;;
5077;SDS011;2557;51.390;7.494;2022-09-02T02:02:25;3.00;;;2.77;;
5077;SDS011;2557;51.390;7.494;2022-09-02T02:04:51;4.73;;;2.77;;
5077;SDS011;2557;51.390;7.494;2022-09-02T02:07:19;3.00;;;2.80;;
5077;SDS011;2557;51.390;7.494;2022-09-02T02:09:46;7.30;;;2.93;;
5077;SDS011;2557;51.390;7.494;2022-09-02T02:12:12;3.23;;;2.83;;
5077;SDS011;2557;51.390;7.494;2022-09-02T02:14:38;4.20;;;3.00;;
5077;SDS011;2557;51.390;7.494;2022-09-02T02:17:04;6.37;;;3.50;;
5077;SDS011;2557;51.390;7.494;2022-09-02T02:19:30;5.63;;;3.67;;
5077;SDS011;2557;51.390;7.494;2022-09-02T02:21:56;6.43;;;3.07;;
5077;SDS011;2557;51.390;7.494;2022-09-02T02:24:22;6.17;;;2.87;;
5077;SDS011;2557;51.390;7.494;2022-09-02T02:26:48;5.10;;;3.07;;
5077;SDS011;2557;51.390;7.494;2022-09-02T02:29:14;2.80;;;2.60;;
5077;SDS011;2557;51.390;7.494;2022-09-02T02:31:41;3.30;;;3.10;;
5077;SDS011;2557;51.390;7.494;2022-09-02T02:34:07;3.17;;;2.87;;
5077;SDS011;2557;51.390;7.494;2022-09-02T02:36:34;3.17;;;2.47;;
5077;SDS011;2557;51.390;7.494;2022-09-02T02:39:00;4.40;;;2.50;;
5077;SDS011;2557;51.390;7.494;2022-09-02T02:41:28;3.87;;;3.17;;
5077;SDS011;2557;51.390;7.494;2022-09-02T02:43:54;3.83;;;2.70;;
5077;SDS011;2557;51.390;7.494;2022-09-02T02:46:20;3.23;;;2.60;;
5077;SDS011;2557;51.390;7.494;2022-09-02T02:48:46;2.67;;;2.30;;
5077;SDS011;2557;51.390;7.494;2022-09-02T02:51:12;2.63;;;2.30;;
5077;SDS011;2557;51.390;7.494;2022-09-02T02:53:38;2.73;;;2.53;;
5077;SDS011;2557;51.390;7.494;2022-09-02T02:56:04;4.23;;;2.50;;
5077;SDS011;2557;51.390;7.494;2022-09-02T02:58:31;2.00;;;1.80;;
5077;SDS011;2557;51.390;7.494;2022-09-02T03:00:57;2.50;;;2.30;;
5077;SDS011;2557;51.390;7.494;2022-09-02T03:03:24;2.63;;;2.43;;
5077;SDS011;2557;51.390;7.494;2022-09-02T03:05:50;2.10;;;1.90;;
5077;SDS011;2557;51.390;7.494;2022-09-02T03:08:16;3.60;;;2.20;;
5077;SDS011;2557;51.390;7.494;2022-09-02T03:10:46;3.70;;;2.80;;
5077;SDS011;2557;51.390;7.494;2022-09-02T03:13:12;3.20;;;2.30;;
5077;SDS011;2557;51.390;7.494;2022-09-02T03:15:39;5.23;;;2.77;;
5077;SDS011;2557;51.390;7.494;2022-09-02T03:18:06;5.00;;;2.20;;
5077;SDS011;2557;51.390;7.494;2022-09-02T03:20:32;4.80;;;2.40;;
5077;SDS011;2557;51.390;7.494;2022-09-02T03:22:59;2.40;;;2.20;;
5077;SDS011;2557;51.390;7.494;2022-09-02T03:25:26;3.37;;;2.17;;
5077;SDS011;2557;51.390;7.494;2022-09-02T03:27:52;3.20;;;2.40;;
5077;SDS011;2557;51.390;7.494;2022-09-02T03:30:21;3.17;;;1.90;;
5077;SDS011;2557;51.390;7.494;2022-09-02T03:32:48;2.90;;;2.53;;
5077;SDS011;2557;51.390;7.494;2022-09-02T03:35:15;2.93;;;2.70;;
5077;SDS011;2557;51.390;7.494;2022-09-02T03:37:43;7.77;;;2.37;;
5077;SDS011;2557;51.390;7.494;2022-09-02T03:40:10;3.97;;;2.07;;
5077;SDS011;2557;51.390;7.494;2022-09-02T03:42:37;2.43;;;2.23;;
5077;SDS011;2557;51.390;7.494;2022-09-02T03:45:03;3.40;;;2.27;;
5077;SDS011;2557;51.390;7.494;2022-09-02T03:47:30;3.33;;;2.03;;
5077;SDS011;2557;51.390;7.494;2022-09-02T03:49:56;3.27;;;2.50;;
5077;SDS011;2557;51.390;7.494;2022-09-02T03:52:22;2.20;;;2.10;;
5077;SDS011;2557;51.390;7.494;2022-09-02T03:54:49;7.60;;;2.07;;
5077;SDS011;2557;51.390;7.494;2022-09-02T03:57:15;4.30;;;1.90;;
5077;SDS011;2557;51.390;7.494;2022-09-02T03:59:41;2.33;;;2.23;;
5077;SDS011;2557;51.390;7.494;2022-09-02T04:02:07;3.40;;;2.20;;
5077;SDS011;2557;51.390;7.494;2022-09-02T04:04:33;4.77;;;2.40;;
5077;SDS011;2557;51.390;7.494;2022-09-02T04:06:59;2.77;;;2.20;;
5077;SDS011;2557;51.390;7.494;2022-09-02T04:09:26;3.60;;;2.20;;
5077;SDS011;2557;51.390;7.494;2022-09-02T04:11:52;4.73;;;2.60;;
5077;SDS011;2557;51.390;7.494;2022-09-02T04:14:18;2.30;;;2.10;;
5077;SDS011;2557;51.390;7.494;2022-09-02T04:16:44;2.70;;;2.50;;
5077;SDS011;2557;51.390;7.494;2022-09-02T04:19:10;2.33;;;2.17;;
5077;SDS011;2557;51.390;7.494;2022-09-02T04:21:38;2.23;;;2.03;;
5077;SDS011;2557;51.390;7.494;2022-09-02T04:24:04;12.60;;;2.87;;
5077;SDS011;2557;51.390;7.494;2022-09-02T04:26:31;3.17;;;2.50;;
5077;SDS011;2557;51.390;7.494;2022-09-02T04:28:57;3.47;;;2.70;;
5077;SDS011;2557;51.390;7.494;2022-09-02T04:31:24;3.03;;;2.77;;
5077;SDS011;2557;51.390;7.494;2022-09-02T04:33:50;2.60;;;2.40;;
5077;SDS011;2557;51.390;7.494;2022-09-02T04:36:17;6.20;;;3.13;;
5077;SDS011;2557;51.390;7.494;2022-09-02T04:38:44;7.93;;;3.20;;
5077;SDS011;2557;51.390;7.494;2022-09-02T04:41:12;4.23;;;2.53;;
5077;SDS011;2557;51.390;7.494;2022-09-02T04:43:38;2.80;;;2.43;;
5077;SDS011;2557;51.390;7.494;2022-09-02T04:46:05;8.43;;;2.93;;
5077;SDS011;2557;51.390;7.494;2022-09-02T04:48:32;6.37;;;2.73;;
5077;SDS011;2557;51.390;7.494;2022-09-02T04:51:02;3.33;;;3.03;;
5077;SDS011;2557;51.390;7.494;2022-09-02T04:53:28;4.80;;;2.43;;
5077;SDS011;2557;51.390;7.494;2022-09-02T04:55:54;5.63;;;2.30;;
5077;SDS011;2557;51.390;7.494;2022-09-02T04:58:20;3.00;;;2.57;;
5077;SDS011;2557;51.390;7.494;2022-09-02T05:00:46;4.03;;;2.60;;
5077;SDS011;2557;51.390;7.494;2022-09-02T05:03:12;3.77;;;2.33;;
5077;SDS011;2557;51.390;7.494;2022-09-02T05:05:38;3.03;;;2.73;;
5077;SDS011;2557;51.390;7.494;2022-09-02T05:08:04;2.83;;;2.63;;
5077;SDS011;2557;51.390;7.494;2022-09-02T05:10:30;3.63;;;3.23;;
5077;SDS011;2557;51.390;7.494;2022-09-02T05:12:57;3.87;;;2.60;;
5077;SDS011;2557;51.390;7.494;2022-09-02T05:15:23;2.90;;;2.27;;
5077;SDS011;2557;51.390;7.494;2022-09-02T05:17:50;8.57;;;3.33;;
5077;SDS011;2557;51.390;7.494;2022-09-02T05:20:17;3.93;;;3.03;;
5077;SDS011;2557;51.390;7.494;2022-09-02T05:22:43;5.63;;;2.50;;
5077;SDS011;2557;51.390;7.494;2022-09-02T05:25:10;4.23;;;2.50;;
5077;SDS011;2557;51.390;7.494;2022-09-02T05:27:36;6.87;;;4.63;;
5077;SDS011;2557;51.390;7.494;2022-09-02T05:30:02;3.93;;;2.60;;
5077;SDS011;2557;51.390;7.494;2022-09-02T05:32:29;5.20;;;2.80;;
5077;SDS011;2557;51.390;7.494;2022-09-02T05:34:56;5.43;;;2.70;;
5077;SDS011;2557;51.390;7.494;2022-09-02T05:37:22;5.10;;;3.23;;
5077;SDS011;2557;51.390;7.494;2022-09-02T05:39:48;7.70;;;3.23;;
5077;SDS011;2557;51.390;7.494;2022-09-02T05:42:14;5.33;;;2.90;;
5077;SDS011;2557;51.390;7.494;2022-09-02T05:44:41;3.30;;;2.77;;
5077;SDS011;2557;51.390;7.494;2022-09-02T05:47:09;7.60;;;3.03;;
5077;SDS011;2557;51.390;7.494;2022-09-02T05:49:35;2.90;;;2.60;;
5077;SDS011;2557;51.390;7.494;2022-09-02T05:52:01;3.00;;;2.80;;
5077;SDS011;2557;51.390;7.494;2022-09-02T05:54:29;2.20;;;2.10;;
5077;SDS011;2557;51.390;7.494;2022-09-02T05:56:56;6.23;;;2.67;;
5077;SDS011;2557;51.390;7.494;2022-09-02T05:59:23;4.30;;;2.77;;
5077;SDS011;2557;51.390;7.494;2022-09-02T06:01:51;5.40;;;2.83;;
5077;SDS011;2557;51.390;7.494;2022-09-02T06:04:17;4.67;;;2.67;;
5077;SDS011;2557;51.390;7.494;2022-09-02T06:06:43;2.73;;;2.53;;
5077;SDS011;2557;51.390;7.494;2022-09-02T06:09:11;7.27;;;3.27;;
5077;SDS011;2557;51.390;7.494;2022-09-02T06:11:38;3.63;;;2.50;;
5077;SDS011;2557;51.390;7.494;2022-09-02T06:14:07;3.53;;;2.63;;
5077;SDS011;2557;51.390;7.494;2022-09-02T06:16:33;6.73;;;3.67;;
5077;SDS011;2557;51.390;7.494;2022-09-02T06:18:59;3.97;;;2.70;;
5077;SDS011;2557;51.390;7.494;2022-09-02T06:21:27;3.77;;;2.30;;
5077;SDS011;2557;51.390;7.494;2022-09-02T06:23:53;5.00;;;2.80;;
5077;SDS011;2557;51.390;7.494;2022-09-02T06:26:20;5.43;;;2.63;;
5077;SDS011;2557;51.390;7.494;2022-09-02T06:28:46;6.17;;;3.03;;
5077;SDS011;2557;51.390;7.494;2022-09-02T06:31:19;4.33;;;2.50;;
5077;SDS011;2557;51.390;7.494;2022-09-02T06:33:46;8.87;;;3.00;;
5077;SDS011;2557;51.390;7.494;2022-09-02T06:36:13;4.33;;;2.80;;
5077;SDS011;2557;51.390;7.494;2022-09-02T06:38:41;3.57;;;2.57;;
5077;SDS011;2557;51.390;7.494;2022-09-02T06:41:09;4.33;;;2.90;;
5077;SDS011;2557;51.390;7.494;2022-09-02T06:43:35;5.07;;;2.57;;
5077;SDS011;2557;51.390;7.494;2022-09-02T06:46:01;3.73;;;2.80;;
5077;SDS011;2557;51.390;7.494;2022-09-02T06:48:27;3.30;;;2.70;;
5077;SDS011;2557;51.390;7.494;2022-09-02T06:50:53;3.00;;;2.30;;
5077;SDS011;2557;51.390;7.494;2022-09-02T06:53:20;9.10;;;2.80;;
5077;SDS011;2557;51.390;7.494;2022-09-02T06:55:46;6.50;;;2.50;;
5077;SDS011;2557;51.390;7.494;2022-09-02T06:58:12;5.40;;;2.50;;
5077;SDS011;2557;51.390;7.494;2022-09-02T07:00:38;5.67;;;2.50;;
5077;SDS011;2557;51.390;7.494;2022-09-02T07:03:05;3.93;;;2.87;;
5077;SDS011;2557;51.390;7.494;2022-09-02T07:08:26;6.10;;;2.50;;
5077;SDS011;2557;51.390;7.494;2022-09-02T07:10:52;4.57;;;2.90;;
5077;SDS011;2557;51.390;7.494;2022-09-02T07:13:18;3.13;;;2.70;;
5077;SDS011;2557;51.390;7.494;2022-09-02T07:15:44;5.03;;;2.63;;
5077;SDS011;2557;51.390;7.494;2022-09-02T07:18:10;4.40;;;2.90;;
5077;SDS011;2557;51.390;7.494;2022-09-02T07:20:36;2.77;;;2.50;;
5077;SDS011;2557;51.390;7.494;2022-09-02T07:23:03;10.33;;;3.00;;
5077;SDS011;2557;51.390;7.494;2022-09-02T07:25:29;6.53;;;2.70;;
5077;SDS011;2557;51.390;7.494;2022-09-02T07:27:55;3.20;;;2.63;;
5077;SDS011;2557;51.390;7.494;2022-09-02T07:30:21;4.90;;;2.97;;
5077;SDS011;2557;51.390;7.494;2022-09-02T07:32:47;3.93;;;2.70;;
5077;SDS011;2557;51.390;7.494;2022-09-02T07:35:13;4.47;;;3.17;;
5077;SDS011;2557;51.390;7.494;2022-09-02T07:37:40;4.47;;;3.20;;
5077;SDS011;2557;51.390;7.494;2022-09-02T07:40:06;4.83;;;2.70;;
5077;SDS011;2557;51.390;7.494;2022-09-02T07:42:34;3.70;;;3.20;;
5077;SDS011;2557;51.390;7.494;2022-09-02T07:45:00;4.43;;;3.17;;
5077;SDS011;2557;51.390;7.494;2022-09-02T07:47:26;2.90;;;2.70;;
5077;SDS011;2557;51.390;7.494;2022-09-02T07:49:52;3.87;;;2.30;;
5077;SDS011;2557;51.390;7.494;2022-09-02T07:52:18;6.73;;;2.80;;
5077;SDS011;2557;51.390;7.494;2022-09-02T07:54:44;5.40;;;2.70;;
5077;SDS011;2557;51.390;7.494;2022-09-02T07:57:10;6.40;;;2.63;;
5077;SDS011;2557;51.390;7.494;2022-09-02T07:59:36;5.70;;;2.90;;
5077;SDS011;2557;51.390;7.494;2022-09-02T08:02:02;3.87;;;2.60;;
5077;SDS011;2557;51.390;7.494;2022-09-02T08:04:28;6.43;;;3.47;;
5077;SDS011;2557;51.390;7.494;2022-09-02T08:06:54;8.33;;;2.83;;
5077;SDS011;2557;51.390;7.494;2022-09-02T08:09:20;5.43;;;2.30;;
5077;SDS011;2557;51.390;7.494;2022-09-02T08:11:47;7.97;;;2.60;;
5077;SDS011;2557;51.390;7.494;2022-09-02T08:14:14;4.90;;;2.60;;
5077;SDS011;2557;51.390;7.494;2022-09-02T08:16:42;4.60;;;2.30;;
5077;SDS011;2557;51.390;7.494;2022-09-02T08:19:08;9.80;;;3.00;;
5077;SDS011;2557;51.390;7.494;2022-09-02T08:21:34;2.43;;;2.23;;
5077;SDS011;2557;51.390;7.494;2022-09-02T08:24:00;7.80;;;2.10;;
5077;SDS011;2557;51.390;7.494;2022-09-02T08:26:26;3.90;;;2.50;;
5077;SDS011;2557;51.390;7.494;2022-09-02T08:28:53;4.67;;;2.60;;
5077;SDS011;2557;51.390;7.494;2022-09-02T08:31:19;2.83;;;2.50;;
5077;SDS011;2557;51.390;7.494;2022-09-02T08:33:45;7.60;;;2.87;;
5077;SDS011;2557;51.390;7.494;2022-09-02T08:36:11;4.93;;;2.67;;
5077;SDS011;2557;51.390;7.494;2022-09-02T08:38:39;3.63;;;2.83;;
5077;SDS011;2557;51.390;7.494;2022-09-02T08:41:25;6.83;;;2.60;;
5077;SDS011;2557;51.390;7.494;2022-09-02T08:43:52;7.23;;;2.70;;
5077;SDS011;2557;51.390;7.494;2022-09-02T08:46:20;10.80;;;2.40;;
5077;SDS011;2557;51.390;7.494;2022-09-02T08:51:32;3.30;;;2.30;;
5077;SDS011;2557;51.390;7.494;2022-09-02T08:56:43;6.77;;;3.23;;
5077;SDS011;2557;51.390;7.494;2022-09-02T08:59:09;4.97;;;2.63;;
5077;SDS011;2557;51.390;7.494;2022-09-02T09:04:52;6.90;;;2.13;;
5077;SDS011;2557;51.390;7.494;2022-09-02T09:06:57;8.77;;;3.17;;
5077;SDS011;2557;51.390;7.494;2022-09-02T09:14:33;2.90;;;2.67;;
5077;SDS011;2557;51.390;7.494;2022-09-02T09:17:06;3.93;;;2.50;;
5077;SDS011;2557;51.390;7.494;2022-09-02T09:22:03;3.90;;;3.20;;
5077;SDS011;2557;51.390;7.494;2022-09-02T09:24:37;4.80;;;2.63;;
5077;SDS011;2557;51.390;7.494;2022-09-02T09:27:06;3.20;;;2.90;;
5077;SDS011;2557;51.390;7.494;2022-09-02T09:29:34;2.87;;;2.27;;
5077;SDS011;2557;51.390;7.494;2022-09-02T09:32:00;2.57;;;2.37;;
5077;SDS011;2557;51.390;7.494;2022-09-02T09:37:16;3.03;;;2.07;;
5077;SDS011;2557;51.390;7.494;2022-09-02T09:39:52;3.17;;;2.10;;
5077;SDS011;2557;51.390;7.494;2022-09-02T09:42:27;4.33;;;2.40;;
5077;SDS011;2557;51.390;7.494;2022-09-02T09:44:54;2.40;;;2.20;;
5077;SDS011;2557;51.390;7.494;2022-09-02T09:47:21;6.23;;;2.53;;
5077;SDS011;2557;51.390;7.494;2022-09-02T09:49:50;2.53;;;2.00;;
5077;SDS011;2557;51.390;7.494;2022-09-02T09:52:23;4.77;;;2.70;;
5077;SDS011;2557;51.390;7.494;2022-09-02T09:55:34;3.50;;;2.10;;
5077;SDS011;2557;51.390;7.494;2022-09-02T09:57:35;8.73;;;2.57;;
5077;SDS011;2557;51.390;7.494;2022-09-02T10:00:08;3.93;;;2.00;;
5077;SDS011;2557;51.390;7.494;2022-09-02T10:02:35;2.90;;;2.13;;
5077;SDS011;2557;51.390;7.494;2022-09-02T10:05:56;2.03;;;1.83;;
5077;SDS011;2557;51.390;7.494;2022-09-02T10:10:23;4.13;;;2.20;;
5077;SDS011;2557;51.390;7.494;2022-09-02T10:12:50;3.90;;;2.20;;
5077;SDS011;2557;51.390;7.494;2022-09-02T10:15:20;2.40;;;2.20;;
5077;SDS011;2557;51.390;7.494;2022-09-02T10:17:59;4.40;;;2.03;;
5077;SDS011;2557;51.390;7.494;2022-09-02T10:20:38;2.60;;;1.70;;
5077;SDS011;2557;51.390;7.494;2022-09-02T10:31:01;2.90;;;1.77;;
5077;SDS011;2557;51.390;7.494;2022-09-02T10:33:32;2.97;;;1.80;;
5077;SDS011;2557;51.390;7.494;2022-09-02T10:36:04;1.70;;;1.60;;
5077;SDS011;2557;51.390;7.494;2022-09-02T10:38:42;1.90;;;1.53;;
5077;SDS011;2557;51.390;7.494;2022-09-02T10:41:14;1.70;;;1.57;;
5077;SDS011;2557;51.390;7.494;2022-09-02T10:46:20;2.10;;;1.63;;
5077;SDS011;2557;51.390;7.494;2022-09-02T10:51:19;3.03;;;1.33;;
5077;SDS011;2557;51.390;7.494;2022-09-02T10:56:38;1.70;;;1.50;;
5077;SDS011;2557;51.390;7.494;2022-09-02T10:59:19;3.40;;;1.60;;
5077;SDS011;2557;51.390;7.494;2022-09-02T11:01:51;1.33;;;1.20;;
5077;SDS011;2557;51.390;7.494;2022-09-02T11:04:36;2.03;;;1.50;;
5077;SDS011;2557;51.390;7.494;2022-09-02T11:07:04;2.70;;;1.60;;
5077;SDS011;2557;51.390;7.494;2022-09-02T11:09:35;1.50;;;1.40;;
5077;SDS011;2557;51.390;7.494;2022-09-02T11:12:09;2.00;;;1.33;;
5077;SDS011;2557;51.390;7.494;2022-09-02T11:14:42;2.87;;;1.73;;
5077;SDS011;2557;51.390;7.494;2022-09-02T11:17:20;2.33;;;1.50;;
5077;SDS011;2557;51.390;7.494;2022-09-02T11:19:56;2.90;;;1.50;;
5077;SDS011;2557;51.390;7.494;2022-09-02T11:22:29;2.60;;;1.67;;
5077;SDS011;2557;51.390;7.494;2022-09-02T11:25:02;1.20;;;1.10;;
5077;SDS011;2557;51.390;7.494;2022-09-02T11:32:40;2.10;;;1.40;;
5077;SDS011;2557;51.390;7.494;2022-09-02T11:35:19;3.27;;;1.90;;
5077;SDS011;2557;51.390;7.494;2022-09-02T11:37:48;3.20;;;1.90;;
5077;SDS011;2557;51.390;7.494;2022-09-02T11:40:20;3.87;;;1.97;;
5077;SDS011;2557;51.390;7.494;2022-09-02T11:45:39;4.90;;;1.70;;
5077;SDS011;2557;51.390;7.494;2022-09-02T11:48:57;2.13;;;1.80;;
5077;SDS011;2557;51.390;7.494;2022-09-02T11:51:03;2.00;;;1.90;;
5077;SDS011;2557;51.390;7.494;2022-09-02T11:53:39;3.40;;;1.53;;
5077;SDS011;2557;51.390;7.494;2022-09-02T11:56:11;2.50;;;1.77;;
5077;SDS011;2557;51.390;7.494;2022-09-02T11:58:39;1.53;;;1.40;;
5077;SDS011;2557;51.390;7.494;2022-09-02T12:03:42;8.47;;;2.20;;
5077;SDS011;2557;51.390;7.494;2022-09-02T12:06:12;1.57;;;1.47;;
5077;SDS011;2557;51.390;7.494;2022-09-02T12:11:06;1.60;;;1.50;;
5077;SDS011;2557;51.390;7.494;2022-09-02T12:13:40;1.77;;;1.30;;
5077;SDS011;2557;51.390;7.494;2022-09-02T12:21:20;8.20;;;1.80;;
5077;SDS011;2557;51.390;7.494;2022-09-02T12:26:22;2.13;;;1.67;;
5077;SDS011;2557;51.390;7.494;2022-09-02T12:28:49;6.73;;;1.90;;
5077;SDS011;2557;51.390;7.494;2022-09-02T12:31:17;6.60;;;1.70;;
5077;SDS011;2557;51.390;7.494;2022-09-02T12:36:46;5.17;;;2.10;;
5077;SDS011;2557;51.390;7.494;2022-09-02T12:47:05;2.80;;;1.90;;
5077;SDS011;2557;51.390;7.494;2022-09-02T12:49:40;1.57;;;1.47;;
5077;SDS011;2557;51.390;7.494;2022-09-02T12:52:09;4.53;;;1.83;;
5077;SDS011;2557;51.390;7.494;2022-09-02T12:57:08;2.77;;;1.63;;
5077;SDS011;2557;51.390;7.494;2022-09-02T12:59:35;6.10;;;1.90;;
5077;SDS011;2557;51.390;7.494;2022-09-02T13:09:53;1.87;;;1.70;;
5077;SDS011;2557;51.390;7.494;2022-09-02T13:12:32;4.30;;;2.33;;
5077;SDS011;2557;51.390;7.494;2022-09-02T13:17:56;2.73;;;2.00;;
5077;SDS011;2557;51.390;7.494;2022-09-02T13:20:40;4.63;;;1.70;;
5077;SDS011;2557;51.390;7.494;2022-09-02T13:31:07;2.83;;;1.73;;
5077;SDS011;2557;51.390;7.494;2022-09-02T13:33:35;3.63;;;1.63;;
5077;SDS011;2557;51.390;7.494;2022-09-02T13:36:01;2.07;;;1.87;;
5077;SDS011;2557;51.390;7.494;2022-09-02T13:38:28;3.33;;;1.70;;
5077;SDS011;2557;51.390;7.494;2022-09-02T13:40:55;2.60;;;2.00;;
5077;SDS011;2557;51.390;7.494;2022-09-02T13:43:21;2.10;;;2.00;;
5077;SDS011;2557;51.390;7.494;2022-09-02T13:45:48;1.73;;;1.63;;
5077;SDS011;2557;51.390;7.494;2022-09-02T13:50:45;2.53;;;2.17;;
5077;SDS011;2557;51.390;7.494;2022-09-02T13:53:25;1.90;;;1.77;;
5077;SDS011;2557;51.390;7.494;2022-09-02T13:55:52;2.13;;;2.03;;
5077;SDS011;2557;51.390;7.494;2022-09-02T13:58:24;2.50;;;2.00;;
5077;SDS011;2557;51.390;7.494;2022-09-02T14:00:55;2.60;;;1.93;;
5077;SDS011;2557;51.390;7.494;2022-09-02T14:03:22;1.80;;;1.70;;
5077;SDS011;2557;51.390;7.494;2022-09-02T14:05:49;5.00;;;2.07;;
5077;SDS011;2557;51.390;7.494;2022-09-02T14:08:17;2.60;;;2.47;;
5077;SDS011;2557;51.390;7.494;2022-09-02T14:10:45;3.17;;;1.87;;
5077;SDS011;2557;51.390;7.494;2022-09-02T14:13:12;2.83;;;1.90;;
5077;SDS011;2557;51.390;7.494;2022-09-02T14:15:40;5.90;;;1.70;;
5077;SDS011;2557;51.390;7.494;2022-09-02T14:20:32;2.53;;;1.80;;
5077;SDS011;2557;51.390;7.494;2022-09-02T14:22:59;2.47;;;2.00;;
5077;SDS011;2557;51.390;7.494;2022-09-02T14:25:26;2.60;;;1.83;;
5077;SDS011;2557;51.390;7.494;2022-09-02T14:27:55;2.00;;;1.80;;
5077;SDS011;2557;51.390;7.494;2022-09-02T14:30:26;4.40;;;2.40;;
5077;SDS011;2557;51.390;7.494;2022-09-02T14:35:38;4.07;;;2.33;;
5077;SDS011;2557;51.390;7.494;2022-09-02T14:38:04;2.30;;;1.90;;
5077;SDS011;2557;51.390;7.494;2022-09-02T14:40:31;3.00;;;2.17;;
5077;SDS011;2557;51.390;7.494;2022-09-02T14:42:58;1.93;;;1.83;;
5077;SDS011;2557;51.390;7.494;2022-09-02T14:45:25;2.10;;;1.90;;
5077;SDS011;2557;51.390;7.494;2022-09-02T14:47:52;2.93;;;1.87;;
5077;SDS011;2557;51.390;7.494;2022-09-02T14:50:18;4.57;;;1.70;;
5077;SDS011;2557;51.390;7.494;2022-09-02T14:52:45;3.60;;;1.60;;
5077;SDS011;2557;51.390;7.494;2022-09-02T14:58:00;2.77;;;1.70;;
5077;SDS011;2557;51.390;7.494;2022-09-02T15:00:26;2.97;;;1.83;;
5077;SDS011;2557;51.390;7.494;2022-09-02T15:02:54;2.23;;;2.03;;
5077;SDS011;2557;51.390;7.494;2022-09-02T15:05:20;3.43;;;2.37;;
5077;SDS011;2557;51.390;7.494;2022-09-02T15:07:48;2.20;;;2.00;;
5077;SDS011;2557;51.390;7.494;2022-09-02T15:10:14;2.53;;;2.27;;
5077;SDS011;2557;51.390;7.494;2022-09-02T15:12:42;1.90;;;1.80;;
5077;SDS011;2557;51.390;7.494;2022-09-02T15:15:10;3.10;;;2.37;;
5077;SDS011;2557;51.390;7.494;2022-09-02T15:17:36;2.53;;;1.90;;
5077;SDS011;2557;51.390;7.494;2022-09-02T15:20:02;6.53;;;2.63;;
5077;SDS011;2557;51.390;7.494;2022-09-02T15:22:30;3.37;;;2.10;;
5077;SDS011;2557;51.390;7.494;2022-09-02T15:24:56;2.60;;;2.37;;
5077;SDS011;2557;51.390;7.494;2022-09-02T15:27:22;2.73;;;2.53;;
5077;SDS011;2557;51.390;7.494;2022-09-02T15:29:48;4.07;;;2.17;;
5077;SDS011;2557;51.390;7.494;2022-09-02T15:32:14;3.93;;;2.07;;
5077;SDS011;2557;51.390;7.494;2022-09-02T15:34:40;3.27;;;2.60;;
5077;SDS011;2557;51.390;7.494;2022-09-02T15:37:06;2.03;;;1.83;;
5077;SDS011;2557;51.390;7.494;2022-09-02T15:39:32;2.47;;;2.27;;
5077;SDS011;2557;51.390;7.494;2022-09-02T15:41:58;1.97;;;1.87;;
5077;SDS011;2557;51.390;7.494;2022-09-02T15:44:24;6.10;;;2.13;;
5077;SDS011;2557;51.390;7.494;2022-09-02T15:46:54;2.13;;;1.80;;
5077;SDS011;2557;51.390;7.494;2022-09-02T15:49:21;1.90;;;1.80;;
5077;SDS011;2557;51.390;7.494;2022-09-02T15:51:50;4.97;;;2.60;;
5077;SDS011;2557;51.390;7.494;2022-09-02T15:54:18;3.00;;;2.10;;
5077;SDS011;2557;51.390;7.494;2022-09-02T15:56:44;4.40;;;2.07;;
5077;SDS011;2557;51.390;7.494;2022-09-02T15:59:15;3.70;;;2.40;;
5077;SDS011;2557;51.390;7.494;2022-09-02T16:01:43;2.77;;;2.17;;
5077;SDS011;2557;51.390;7.494;2022-09-02T16:04:09;2.57;;;2.00;;
5077;SDS011;2557;51.390;7.494;2022-09-02T16:06:36;3.50;;;2.10;;
5077;SDS011;2557;51.390;7.494;2022-09-02T16:09:03;2.00;;;1.80;;
5077;SDS011;2557;51.390;7.494;2022-09-02T16:11:31;2.90;;;1.90;;
5077;SDS011;2557;51.390;7.494;2022-09-02T16:13:57;6.00;;;2.43;;
5077;SDS011;2557;51.390;7.494;2022-09-02T16:16:23;2.30;;;2.10;;
5077;SDS011;2557;51.390;7.494;2022-09-02T16:18:50;2.23;;;2.00;;
5077;SDS011;2557;51.390;7.494;2022-09-02T16:21:16;4.40;;;2.50;;
5077;SDS011;2557;51.390;7.494;2022-09-02T16:23:42;2.43;;;2.07;;
5077;SDS011;2557;51.390;7.494;2022-09-02T16:28:42;2.60;;;2.30;;
5077;SDS011;2557;51.390;7.494;2022-09-02T16:31:08;2.13;;;1.93;;
5077;SDS011;2557;51.390;7.494;2022-09-02T16:33:35;3.27;;;1.70;;
5077;SDS011;2557;51.390;7.494;2022-09-02T16:36:02;4.33;;;2.10;;
5077;SDS011;2557;51.390;7.494;2022-09-02T16:38:28;2.33;;;1.70;;
5077;SDS011;2557;51.390;7.494;2022-09-02T16:40:54;3.93;;;2.00;;
5077;SDS011;2557;51.390;7.494;2022-09-02T16:43:21;4.80;;;2.10;;
5077;SDS011;2557;51.390;7.494;2022-09-02T16:45:48;2.00;;;1.90;;
5077;SDS011;2557;51.390;7.494;2022-09-02T16:48:15;2.60;;;2.40;;
5077;SDS011;2557;51.390;7.494;2022-09-02T16:50:43;2.43;;;1.83;;
5077;SDS011;2557;51.390;7.494;2022-09-02T16:53:09;3.23;;;1.87;;
5077;SDS011;2557;51.390;7.494;2022-09-02T16:55:38;2.27;;;1.77;;
5077;SDS011;2557;51.390;7.494;2022-09-02T16:58:04;4.53;;;2.30;;
5077;SDS011;2557;51.390;7.494;2022-09-02T17:00:30;2.30;;;2.13;;
5077;SDS011;2557;51.390;7.494;2022-09-02T17:02:56;3.67;;;2.10;;
5077;SDS011;2557;51.390;7.494;2022-09-02T17:05:22;2.10;;;2.00;;